Captain Cook, HI

6:38 PM HST on February 26, 2015 (GMT -1000)
Captain Cook | Change Station
CLOSE
Current Station
Personal Weather Station
Location: Captain Cook, HI
Elevation: 915 ft
Nearby Weather Stations

Elev 915 ft 19.31 °N, 155.88 °W | Updated 8 minutes ago

Clear
Clear
70.1 °F
Feels Like 70.1 °F
N
2.0
Wind Variable Wind from South
Gusts 6.0 mph

Today
High -- | Low -- °F
--% Chance of Precip.
Yesterday
High -- | Low -- °F
Precip. -- in
6:45 AM 6:27 PM
Waxing Gibbous, 65% visible
Pressure 29.93 in
Visibility 10.0 miles
Clouds Clear
Dew Point 65 °F
Humidity 85%
Rainfall 0.00 in
Snow Depth Not available.
UV 0.0 out of 12
Pollen Not available.
Air Quality Not available.
Flu Activity Not available.
METAR PHKO 270353Z 00000KT 10SM CLR 26/19 A2993 RMK AO2 SLP134 T02610189

More Conditions Fewer Conditions

Pressure 29.93 in
Visibility 10.0 miles
Clouds Clear
Dew Point 65 °F
Humidity 85%
Rainfall 0.00 in
Snow Depth Not available.
UV 0.0 out of 12
Pollen Not available.
Air Quality Not available.
Flu Activity Not available.
METAR PHKO 270353Z 00000KT 10SM CLR 26/19 A2993 RMK AO2 SLP134 T02610189

More Conditions Fewer Conditions

10-Day Weather Forecast

Almanac

Astronomy

Feb. 26, 2015 Rise Set
Actual Time
Civil Twilight
Nautical Twilight
Astronomical Twilight
Moon
Length of Visible Light
Length of Day
Tomorrow will be .
, % of the Moon is Illuminated

Today's Extremes

State Highs State Lows

Community

WunderPhotos

Upload Photos

1,800,623 photos uploaded!

WunderBlogs® & News

Nearby

Air Quality

  Air Quality AQ Index Pollutant
Not available.

Snow Depth

Station Depth Elevation

Earthquake Activity

City Distance Mag. Time & Date
Minimum magnitude displayed is 2.5.

Coastal Water Temperatures

Place Temperature

Nearby Weather Stations